createdAt,value
2022-08-03T00:04:40.673Z,84.50
2022-08-03T00:09:45.549Z,85.40
2022-08-03T00:14:50.115Z,86.60
2022-08-03T00:19:56.066Z,87.10
2022-08-03T00:25:01.869Z,87.10
2022-08-03T00:30:08.290Z,88.10
2022-08-03T00:35:32.452Z,89.10
2022-08-03T00:40:38.635Z,89.70
2022-08-03T00:45:44.459Z,90.30
2022-08-03T00:50:52.134Z,91.20
2022-08-03T00:55:59.053Z,92.50
2022-08-03T01:01:07.087Z,93.50
2022-08-03T01:06:19.761Z,94.40
2022-08-03T01:11:33.722Z,94.90
2022-08-03T01:16:51.721Z,95.20
2022-08-03T01:22:28.802Z,94.90
2022-08-03T01:27:53.156Z,95.00
2022-08-03T01:33:05.354Z,94.50
2022-08-03T01:38:14.697Z,94.60
2022-08-03T01:44:26.756Z,94.80
2022-08-03T01:48:52.158Z,95.10
2022-08-03T01:53:58.069Z,95.30
2022-08-03T01:59:05.140Z,95.30
2022-08-03T02:04:13.554Z,96.00
2022-08-03T02:09:22.122Z,96.40
2022-08-03T02:14:29.101Z,96.90
2022-08-03T02:19:36.808Z,97.00
2022-08-03T02:24:41.738Z,96.90
2022-08-03T02:29:56.141Z,97.00
2022-08-03T02:35:04.991Z,97.50
2022-08-03T02:40:13.995Z,98.00
2022-08-03T02:45:22.627Z,98.70
2022-08-03T02:50:30.730Z,99.90
2022-08-03T02:55:36.846Z,99.90
2022-08-03T03:00:49.325Z,99.90
2022-08-03T03:05:57.502Z,99.90
2022-08-03T03:11:03.217Z,99.90
2022-08-03T03:16:09.347Z,99.90
2022-08-03T03:21:19.028Z,99.90
2022-08-03T03:26:23.805Z,99.90
2022-08-03T03:31:28.158Z,99.90
2022-08-03T03:36:33.909Z,99.90
2022-08-03T03:41:38.602Z,99.90
2022-08-03T03:46:43.485Z,99.90
2022-08-03T03:51:49.182Z,99.90
2022-08-03T03:56:53.895Z,99.90
2022-08-03T04:01:59.498Z,99.90
2022-08-03T04:07:22.674Z,99.90
2022-08-03T04:12:31.477Z,99.90
2022-08-03T04:17:37.038Z,99.90
2022-08-03T04:22:43.656Z,99.90
2022-08-03T04:28:21.026Z,99.90
2022-08-03T04:33:19.865Z,99.90
2022-08-03T04:38:28.256Z,99.90
2022-08-03T04:43:36.116Z,99.90
2022-08-03T04:48:44.761Z,99.90
2022-08-03T04:53:50.806Z,99.90
2022-08-03T04:58:55.515Z,99.90
2022-08-03T05:04:00.301Z,99.90
2022-08-03T05:09:06.071Z,99.90
2022-08-03T05:14:10.544Z,99.90
2022-08-03T05:19:14.730Z,99.90
2022-08-03T05:24:20.310Z,99.90
2022-08-03T05:29:24.533Z,99.90
2022-08-03T05:34:28.779Z,99.90
2022-08-03T05:39:34.428Z,99.90
2022-08-03T05:44:39.261Z,99.50
2022-08-03T05:49:43.708Z,98.40
2022-08-03T05:54:55.374Z,97.90
2022-08-03T06:00:01.363Z,96.60
2022-08-03T06:05:15.637Z,95.20
2022-08-03T06:10:35.601Z,94.00
2022-08-03T06:15:42.653Z,92.70
2022-08-03T06:20:47.207Z,91.80
2022-08-03T06:25:55.374Z,90.70
2022-08-03T06:30:59.906Z,88.10
2022-08-03T06:36:04.577Z,86.40
2022-08-03T06:41:10.250Z,84.80
2022-08-03T06:46:14.516Z,83.00
2022-08-03T06:51:18.972Z,80.50
2022-08-03T06:56:24.875Z,78.30
2022-08-03T07:01:29.454Z,74.90
2022-08-03T07:06:34.257Z,72.00
2022-08-03T07:11:40.119Z,68.10
2022-08-03T07:16:44.436Z,63.60
2022-08-03T07:21:48.760Z,60.40
2022-08-03T07:26:54.356Z,58.20
2022-08-03T07:31:58.735Z,56.40
2022-08-03T07:37:03.080Z,54.80
2022-08-03T07:42:08.906Z,53.90
2022-08-03T07:47:19.361Z,53.10
2022-08-03T07:52:44.856Z,51.20
2022-08-03T07:58:06.022Z,50.60
2022-08-03T08:03:10.668Z,49.60
2022-08-03T08:08:14.969Z,49.10
2022-08-03T08:13:20.665Z,49.60
2022-08-03T08:18:25.506Z,48.70
2022-08-03T08:23:42.452Z,47.80
2022-08-03T08:28:50.812Z,47.20
2022-08-03T08:34:04.145Z,45.90
2022-08-03T08:39:09.237Z,45.10
2022-08-03T08:44:15.730Z,44.30
2022-08-03T08:50:04.038Z,43.80
2022-08-03T08:55:22.051Z,43.40
2022-08-03T09:00:28.107Z,42.20
2022-08-03T09:05:55.437Z,41.60
2022-08-03T09:12:42.302Z,41.20
2022-08-03T09:33:06.564Z,39.00
2022-08-03T09:38:14.645Z,37.60
2022-08-03T09:43:20.248Z,36.80
2022-08-03T09:48:29.912Z,36.00
2022-08-03T09:53:59.308Z,35.00
2022-08-03T09:59:04.753Z,34.80
2022-08-03T10:04:17.042Z,34.50
2022-08-03T10:09:21.668Z,33.60
2022-08-03T10:14:31.712Z,33.40
2022-08-03T10:19:37.804Z,33.20
2022-08-03T10:24:53.718Z,33.00
2022-08-03T10:30:03.119Z,32.60
2022-08-03T10:35:20.672Z,31.50
2022-08-03T10:45:54.214Z,31.30
2022-08-03T10:51:00.656Z,30.90
2022-08-03T10:56:35.375Z,31.10
2022-08-03T11:01:58.799Z,31.20
2022-08-03T11:07:23.927Z,30.50
2022-08-03T11:12:32.413Z,29.80
2022-08-03T11:17:46.942Z,29.30
2022-08-03T11:23:02.930Z,29.40
2022-08-03T11:28:39.875Z,29.50
2022-08-03T11:34:05.533Z,29.60
2022-08-03T11:39:17.652Z,29.10
2022-08-03T11:44:47.484Z,28.30
2022-08-03T11:49:55.197Z,28.30
2022-08-03T11:55:01.304Z,27.80
2022-08-03T12:00:26.303Z,27.70
2022-08-03T12:05:51.297Z,27.40
2022-08-03T12:11:00.729Z,27.40
2022-08-03T12:16:05.756Z,27.10
2022-08-03T12:21:12.879Z,27.20
2022-08-03T12:26:19.781Z,27.70
2022-08-03T12:31:24.823Z,27.40
2022-08-03T12:36:34.126Z,27.50
2022-08-03T12:41:41.796Z,27.20
2022-08-03T12:46:48.056Z,27.10
2022-08-03T12:52:06.926Z,27.20
2022-08-03T12:57:15.911Z,27.20
2022-08-03T13:02:24.204Z,26.90
2022-08-03T13:07:31.254Z,26.70
2022-08-03T13:12:48.866Z,26.90
2022-08-03T13:17:53.816Z,27.10
2022-08-03T13:23:00.966Z,26.80
2022-08-03T13:28:09.931Z,26.90
2022-08-03T13:33:17.093Z,26.60
2022-08-03T13:38:21.821Z,26.60
2022-08-03T13:43:33.408Z,26.40
2022-08-03T13:48:38.788Z,26.40
2022-08-03T13:53:43.171Z,26.30
2022-08-03T13:58:49.040Z,26.00
2022-08-03T14:03:54.851Z,26.20
2022-08-03T14:09:00.770Z,26.00
2022-08-03T14:14:06.585Z,26.10
2022-08-03T14:19:26.282Z,26.00
2022-08-03T14:24:31.533Z,26.30
2022-08-03T14:29:37.207Z,26.30
2022-08-03T14:34:41.609Z,26.50
2022-08-03T14:40:02.385Z,26.50
2022-08-03T14:45:19.909Z,26.50
2022-08-03T14:50:38.677Z,27.00
2022-08-03T14:55:49.566Z,26.90
2022-08-03T15:00:57.450Z,27.30
2022-08-03T15:06:01.793Z,26.90
2022-08-03T15:11:06.162Z,27.00
2022-08-03T15:16:11.879Z,27.00
2022-08-03T15:21:20.706Z,27.10
2022-08-03T15:26:41.765Z,27.20
2022-08-03T15:31:47.889Z,27.20
2022-08-03T15:36:52.184Z,27.20
2022-08-03T15:41:56.849Z,27.30
2022-08-03T15:47:02.669Z,27.30
2022-08-03T15:52:07.058Z,27.70
2022-08-03T15:57:11.427Z,28.10
2022-08-03T16:02:17.248Z,28.30
2022-08-03T16:07:42.095Z,28.20
2022-08-03T16:13:06.643Z,28.00
2022-08-03T16:18:12.564Z,28.30
2022-08-03T16:23:19.458Z,28.30
2022-08-03T16:28:24.439Z,28.40
2022-08-03T16:33:30.189Z,28.80
2022-08-03T16:38:34.595Z,28.70
2022-08-03T16:43:38.914Z,29.10
2022-08-03T16:48:44.519Z,28.80
2022-08-03T16:54:05.357Z,28.70
2022-08-03T16:59:12.645Z,28.80
2022-08-03T17:04:18.491Z,28.80
2022-08-03T17:09:23.037Z,29.30
2022-08-03T17:14:28.526Z,29.50
2022-08-03T17:19:41.636Z,29.70
2022-08-03T17:24:54.939Z,30.80
2022-08-03T17:30:07.542Z,33.40
2022-08-03T17:35:14.911Z,35.40
2022-08-03T17:40:20.043Z,36.90
2022-08-03T17:45:52.180Z,37.70
2022-08-03T17:51:04.871Z,38.30
2022-08-03T17:56:46.433Z,39.30
2022-08-03T18:07:59.512Z,40.60
2022-08-03T18:13:12.428Z,41.60
2022-08-03T18:18:29.318Z,41.50
2022-08-03T18:23:40.105Z,43.00
2022-08-03T18:28:45.200Z,44.00
2022-08-03T18:34:17.261Z,44.50
2022-08-03T18:39:19.639Z,44.80
2022-08-03T18:44:37.420Z,45.70
2022-08-03T18:50:14.413Z,46.40
2022-08-03T18:55:33.690Z,47.20
2022-08-03T19:00:55.060Z,48.30
2022-08-03T19:06:14.607Z,49.00
2022-08-03T19:12:14.152Z,49.60
2022-08-03T19:17:09.538Z,50.10
2022-08-03T19:22:16.204Z,51.60
2022-08-03T19:27:26.988Z,52.40
2022-08-03T19:32:33.945Z,52.70
2022-08-03T19:37:40.097Z,54.20
2022-08-03T19:42:50.440Z,54.60
2022-08-03T19:48:09.676Z,55.50
2022-08-03T19:53:15.528Z,56.80
2022-08-03T19:58:31.859Z,57.50
2022-08-03T20:03:42.929Z,58.00
2022-08-03T20:08:51.644Z,58.00
2022-08-03T20:14:00.507Z,58.60
2022-08-03T20:19:05.211Z,59.20
2022-08-03T20:30:07.976Z,60.60
2022-08-03T20:35:12.585Z,60.80
2022-08-03T20:40:17.203Z,60.80
2022-08-03T20:45:59.187Z,60.70
2022-08-03T20:50:48.484Z,61.90
2022-08-03T20:56:02.136Z,62.80
2022-08-03T21:01:08.789Z,63.70
2022-08-03T21:06:27.480Z,62.60
2022-08-03T21:11:42.173Z,62.30
2022-08-03T21:13:05.167Z,40.20
2022-08-03T21:16:52.715Z,61.30
2022-08-03T21:21:58.865Z,60.30
2022-08-03T21:27:23.368Z,60.50
2022-08-03T21:32:32.596Z,61.40
2022-08-03T21:37:38.804Z,61.70
2022-08-03T21:42:46.441Z,62.00
2022-08-03T21:47:52.520Z,62.50
2022-08-03T21:52:59.866Z,63.10
2022-08-03T21:58:06.794Z,63.40
2022-08-03T22:03:17.168Z,64.00
2022-08-03T22:08:22.565Z,64.30
2022-08-03T22:13:43.705Z,64.30
2022-08-03T22:18:50.449Z,64.50
2022-08-03T22:24:00.712Z,64.30
2022-08-03T22:29:09.121Z,64.30
2022-08-03T22:34:15.068Z,64.90
2022-08-03T22:39:25.717Z,63.50
2022-08-03T22:44:32.605Z,62.60
2022-08-03T22:49:40.739Z,62.90
2022-08-03T23:00:24.874Z,63.90
2022-08-03T23:06:02.366Z,63.80
2022-08-03T23:11:09.010Z,63.80
2022-08-03T23:16:29.391Z,63.60
2022-08-03T23:22:01.025Z,63.30
2022-08-03T23:27:04.544Z,62.60
2022-08-03T23:32:11.492Z,62.20
2022-08-03T23:37:21.971Z,61.80
2022-08-03T23:42:29.668Z,62.00
2022-08-03T23:47:46.477Z,62.40
2022-08-03T23:53:11.936Z,62.90
2022-08-03T23:58:47.567Z,63.10
